sensor_id;sensor_type;location;lat;lon;timestamp;P1;P2;P0
28647;PMS5003;17137;51.494;-0.262;2024-03-08T13:45:59;18;18;
28647;PMS5003;17137;51.494;-0.262;2024-03-08T13:46:29;14;14;
28647;PMS5003;17137;51.494;-0.262;2024-03-08T13:47:00;19;19;
28647;PMS5003;17137;51.494;-0.262;2024-03-08T13:47:30;18;18;
28647;PMS5003;17137;51.494;-0.262;2024-03-08T13:48:01;19;19;
28647;PMS5003;17137;51.494;-0.262;2024-03-08T13:48:33;19;19;
28647;PMS5003;17137;51.494;-0.262;2024-03-08T13:49:05;19;19;
28647;PMS5003;17137;51.494;-0.262;2024-03-08T13:49:35;18;18;
28647;PMS5003;17137;51.494;-0.262;2024-03-08T13:50:06;18;18;
28647;PMS5003;17137;51.494;-0.262;2024-03-08T13:50:38;25;25;
28647;PMS5003;17137;51.494;-0.262;2024-03-08T13:51:08;25;25;
28647;PMS5003;17137;51.494;-0.262;2024-03-08T13:51:39;27;27;
28647;PMS5003;17137;51.494;-0.262;2024-03-08T13:52:09;25;25;
28647;PMS5003;17137;51.494;-0.262;2024-03-08T13:52:40;25;25;
28647;PMS5003;17137;51.494;-0.262;2024-03-08T13:53:10;27;27;
28647;PMS5003;17137;51.494;-0.262;2024-03-08T13:53:40;30;30;
28647;PMS5003;17137;51.494;-0.262;2024-03-08T13:54:11;30;30;
28647;PMS5003;17137;51.494;-0.262;2024-03-08T13:54:41;33;33;
28647;PMS5003;17137;51.494;-0.262;2024-03-08T13:55:12;34;34;
28647;PMS5003;17137;51.494;-0.262;2024-03-08T13:55:42;36;36;
28647;PMS5003;17137;51.494;-0.262;2024-03-08T13:56:12;34;34;
28647;PMS5003;17137;51.494;-0.262;2024-03-08T13:56:43;34;34;
28647;PMS5003;17137;51.494;-0.262;2024-03-08T13:57:14;34;34;
28647;PMS5003;17137;51.494;-0.262;2024-03-08T13:57:44;39;39;
28647;PMS5003;17137;51.494;-0.262;2024-03-08T13:58:15;42;40;
28647;PMS5003;17137;51.494;-0.262;2024-03-08T13:58:45;43;40;
28647;PMS5003;17137;51.494;-0.262;2024-03-08T13:59:16;45;42;
28647;PMS5003;17137;51.494;-0.262;2024-03-08T13:59:46;42;39;
28647;PMS5003;17137;51.494;-0.262;2024-03-08T14:00:16;46;43;
28647;PMS5003;17137;51.494;-0.262;2024-03-08T14:00:47;45;43;
28647;PMS5003;17137;51.494;-0.262;2024-03-08T14:01:17;48;45;
28647;PMS5003;17137;51.494;-0.262;2024-03-08T14:01:48;51;48;
28647;PMS5003;17137;51.494;-0.262;2024-03-08T14:02:18;57;51;
28647;PMS5003;17137;51.494;-0.262;2024-03-08T14:02:48;55;48;
28647;PMS5003;17137;51.494;-0.262;2024-03-08T14:03:18;58;49;
28647;PMS5003;17137;51.494;-0.262;2024-03-08T14:03:49;63;54;
28647;PMS5003;17137;51.494;-0.262;2024-03-08T14:04:19;63;54;
28647;PMS5003;17137;51.494;-0.262;2024-03-08T14:04:50;63;54;
28647;PMS5003;17137;51.494;-0.262;2024-03-08T14:05:20;64;55;
28647;PMS5003;17137;51.494;-0.262;2024-03-08T14:05:50;64;55;
28647;PMS5003;17137;51.494;-0.262;2024-03-08T14:06:20;64;55;
28647;PMS5003;17137;51.494;-0.262;2024-03-08T14:06:51;69;57;
28647;PMS5003;17137;51.494;-0.262;2024-03-08T14:07:21;70;55;
28647;PMS5003;17137;51.494;-0.262;2024-03-08T14:07:52;70;54;
28647;PMS5003;17137;51.494;-0.262;2024-03-08T14:08:27;72;54;
28647;PMS5003;17137;51.494;-0.262;2024-03-08T14:08:57;69;52;
28647;PMS5003;17137;51.494;-0.262;2024-03-08T14:09:28;73;57;
28647;PMS5003;17137;51.494;-0.262;2024-03-08T14:09:58;72;57;
28647;PMS5003;17137;51.494;-0.262;2024-03-08T14:10:29;67;54;
28647;PMS5003;17137;51.494;-0.262;2024-03-08T14:10:59;66;52;
28647;PMS5003;17137;51.494;-0.262;2024-03-08T14:11:29;61;48;
28647;PMS5003;17137;51.494;-0.262;2024-03-08T14:11:59;57;48;
28647;PMS5003;17137;51.494;-0.262;2024-03-08T14:12:30;57;46;
28647;PMS5003;17137;51.494;-0.262;2024-03-08T14:13:00;60;51;
28647;PMS5003;17137;51.494;-0.262;2024-03-08T14:13:31;60;51;
28647;PMS5003;17137;51.494;-0.262;2024-03-08T14:14:01;60;51;
28647;PMS5003;17137;51.494;-0.262;2024-03-08T14:14:31;58;49;
28647;PMS5003;17137;51.494;-0.262;2024-03-08T14:15:02;57;49;
28647;PMS5003;17137;51.494;-0.262;2024-03-08T14:15:32;51;45;
28647;PMS5003;17137;51.494;-0.262;2024-03-08T14:16:03;52;45;
28647;PMS5003;17137;51.494;-0.262;2024-03-08T14:16:34;55;48;
28647;PMS5003;17137;51.494;-0.262;2024-03-08T14:17:05;54;46;
28647;PMS5003;17137;51.494;-0.262;2024-03-08T14:17:35;58;48;
28647;PMS5003;17137;51.494;-0.262;2024-03-08T14:18:06;60;49;
28647;PMS5003;17137;51.494;-0.262;2024-03-08T14:18:36;55;46;
28647;PMS5003;17137;51.494;-0.262;2024-03-08T14:19:07;54;45;
28647;PMS5003;17137;51.494;-0.262;2024-03-08T14:19:37;57;46;
28647;PMS5003;17137;51.494;-0.262;2024-03-08T14:20:08;60;49;
28647;PMS5003;17137;51.494;-0.262;2024-03-08T14:20:38;60;51;
28647;PMS5003;17137;51.494;-0.262;2024-03-08T14:21:09;60;51;
28647;PMS5003;17137;51.494;-0.262;2024-03-08T14:21:39;60;51;
28647;PMS5003;17137;51.494;-0.262;2024-03-08T14:22:10;60;49;
28647;PMS5003;17137;51.494;-0.262;2024-03-08T14:22:40;60;49;
28647;PMS5003;17137;51.494;-0.262;2024-03-08T14:23:10;60;49;
28647;PMS5003;17137;51.494;-0.262;2024-03-08T14:23:41;60;48;
28647;PMS5003;17137;51.494;-0.262;2024-03-08T14:24:11;58;46;
28647;PMS5003;17137;51.494;-0.262;2024-03-08T14:24:41;58;46;
28647;PMS5003;17137;51.494;-0.262;2024-03-08T14:25:12;59;48;
28647;PMS5003;17137;51.494;-0.262;2024-03-08T14:25:42;59;48;
28647;PMS5003;17137;51.494;-0.262;2024-03-08T14:26:13;59;47;
28647;PMS5003;17137;51.494;-0.262;2024-03-08T14:26:43;60;49;
28647;PMS5003;17137;51.494;-0.262;2024-03-08T14:27:14;60;49;
28647;PMS5003;17137;51.494;-0.262;2024-03-08T14:27:45;60;49;
28647;PMS5003;17137;51.494;-0.262;2024-03-08T14:28:15;62;46;
28647;PMS5003;17137;51.494;-0.262;2024-03-08T14:28:46;67;52;
28647;PMS5003;17137;51.494;-0.262;2024-03-08T14:29:16;74;53;
28647;PMS5003;17137;51.494;-0.262;2024-03-08T14:29:46;71;53;
28647;PMS5003;17137;51.494;-0.262;2024-03-08T14:30:16;72;55;
28647;PMS5003;17137;51.494;-0.262;2024-03-08T14:30:47;71;53;
28647;PMS5003;17137;51.494;-0.262;2024-03-08T14:31:17;73;57;
28647;PMS5003;17137;51.494;-0.262;2024-03-08T14:31:47;72;57;
28647;PMS5003;17137;51.494;-0.262;2024-03-08T14:32:18;70;56;
28647;PMS5003;17137;51.494;-0.262;2024-03-08T14:32:48;65;53;
28647;PMS5003;17137;51.494;-0.262;2024-03-08T14:33:18;62;54;
28647;PMS5003;17137;51.494;-0.262;2024-03-08T14:33:54;59;52;
28647;PMS5003;17137;51.494;-0.262;2024-03-08T14:34:24;53;50;
28647;PMS5003;17137;51.494;-0.262;2024-03-08T14:34:55;53;50;
28647;PMS5003;17137;51.494;-0.262;2024-03-08T14:35:25;53;50;
28647;PMS5003;17137;51.494;-0.262;2024-03-08T14:35:56;53;49;
28647;PMS5003;17137;51.494;-0.262;2024-03-08T14:36:26;52;47;
28647;PMS5003;17137;51.494;-0.262;2024-03-08T14:36:57;52;47;
28647;PMS5003;17137;51.494;-0.262;2024-03-08T14:37:27;49;46;
28647;PMS5003;17137;51.494;-0.262;2024-03-08T14:37:57;49;46;
28647;PMS5003;17137;51.494;-0.262;2024-03-08T14:38:28;49;46;
28647;PMS5003;17137;51.494;-0.262;2024-03-08T14:38:58;52;48;
28647;PMS5003;17137;51.494;-0.262;2024-03-08T14:39:29;52;48;
28647;PMS5003;17137;51.494;-0.262;2024-03-08T14:39:59;52;48;
28647;PMS5003;17137;51.494;-0.262;2024-03-08T14:40:30;48;44;
28647;PMS5003;17137;51.494;-0.262;2024-03-08T14:41:00;51;45;
28647;PMS5003;17137;51.494;-0.262;2024-03-08T14:41:30;50;48;
28647;PMS5003;17137;51.494;-0.262;2024-03-08T14:42:02;52;49;
28647;PMS5003;17137;51.494;-0.262;2024-03-08T14:42:33;53;49;
28647;PMS5003;17137;51.494;-0.262;2024-03-08T14:43:04;56;52;
28647;PMS5003;17137;51.494;-0.262;2024-03-08T14:43:35;53;49;
28647;PMS5003;17137;51.494;-0.262;2024-03-08T14:44:05;55;50;
28647;PMS5003;17137;51.494;-0.262;2024-03-08T14:44:37;62;53;
28647;PMS5003;17137;51.494;-0.262;2024-03-08T14:45:08;62;53;
28647;PMS5003;17137;51.494;-0.262;2024-03-08T14:45:39;64;56;
28647;PMS5003;17137;51.494;-0.262;2024-03-08T14:46:09;62;55;
28647;PMS5003;17137;51.494;-0.262;2024-03-08T14:46:40;61;53;
28647;PMS5003;17137;51.494;-0.262;2024-03-08T14:47:11;61;53;
28647;PMS5003;17137;51.494;-0.262;2024-03-08T14:47:41;61;53;
28647;PMS5003;17137;51.494;-0.262;2024-03-08T14:48:12;64;55;
28647;PMS5003;17137;51.494;-0.262;2024-03-08T14:48:42;62;55;
28647;PMS5003;17137;51.494;-0.262;2024-03-08T14:49:13;62;55;
28647;PMS5003;17137;51.494;-0.262;2024-03-08T14:49:44;67;59;
28647;PMS5003;17137;51.494;-0.262;2024-03-08T14:50:14;64;57;
28647;PMS5003;17137;51.494;-0.262;2024-03-08T14:50:45;60;56;
28647;PMS5003;17137;51.494;-0.262;2024-03-08T14:51:15;61;57;
28647;PMS5003;17137;51.494;-0.262;2024-03-08T14:51:46;62;58;
28647;PMS5003;17137;51.494;-0.262;2024-03-08T14:52:16;61;58;
28647;PMS5003;17137;51.494;-0.262;2024-03-08T14:52:46;65;62;
28647;PMS5003;17137;51.494;-0.262;2024-03-08T14:53:17;61;58;
28647;PMS5003;17137;51.494;-0.262;2024-03-08T14:53:47;64;58;
28647;PMS5003;17137;51.494;-0.262;2024-03-08T14:54:18;65;56;
28647;PMS5003;17137;51.494;-0.262;2024-03-08T14:54:48;65;56;
28647;PMS5003;17137;51.494;-0.262;2024-03-08T14:55:19;65;56;
28647;PMS5003;17137;51.494;-0.262;2024-03-08T14:55:50;62;55;
28647;PMS5003;17137;51.494;-0.262;2024-03-08T14:56:21;62;55;
28647;PMS5003;17137;51.494;-0.262;2024-03-08T14:56:51;62;55;
28647;PMS5003;17137;51.494;-0.262;2024-03-08T14:57:22;63;55;
28647;PMS5003;17137;51.494;-0.262;2024-03-08T14:57:52;63;55;
28647;PMS5003;17137;51.494;-0.262;2024-03-08T14:58:23;63;55;
28647;PMS5003;17137;51.494;-0.262;2024-03-08T14:58:53;62;53;
28647;PMS5003;17137;51.494;-0.262;2024-03-08T14:59:23;62;53;
28647;PMS5003;17137;51.494;-0.262;2024-03-08T14:59:53;62;53;
28647;PMS5003;17137;51.494;-0.262;2024-03-08T15:00:24;58;50;
28647;PMS5003;17137;51.494;-0.262;2024-03-08T15:00:54;58;50;
28647;PMS5003;17137;51.494;-0.262;2024-03-08T15:01:25;58;50;
28647;PMS5003;17137;51.494;-0.262;2024-03-08T15:01:55;62;54;
28647;PMS5003;17137;51.494;-0.262;2024-03-08T15:02:26;65;56;
28647;PMS5003;17137;51.494;-0.262;2024-03-08T15:02:56;63;53;
28647;PMS5003;17137;51.494;-0.262;2024-03-08T15:03:26;64;54;
28647;PMS5003;17137;51.494;-0.262;2024-03-08T15:03:57;71;61;
28647;PMS5003;17137;51.494;-0.262;2024-03-08T15:04:27;68;60;
28647;PMS5003;17137;51.494;-0.262;2024-03-08T15:04:58;70;61;
28647;PMS5003;17137;51.494;-0.262;2024-03-08T15:05:28;75;65;
28647;PMS5003;17137;51.494;-0.262;2024-03-08T15:05:58;74;63;
28647;PMS5003;17137;51.494;-0.262;2024-03-08T15:06:29;74;63;
28647;PMS5003;17137;51.494;-0.262;2024-03-08T15:06:59;74;63;
28647;PMS5003;17137;51.494;-0.262;2024-03-08T15:07:30;71;63;
28647;PMS5003;17137;51.494;-0.262;2024-03-08T15:08:00;70;60;
28647;PMS5003;17137;51.494;-0.262;2024-03-08T15:08:31;69;59;
28647;PMS5003;17137;51.494;-0.262;2024-03-08T15:09:01;69;59;
28647;PMS5003;17137;51.494;-0.262;2024-03-08T15:09:32;67;59;
28647;PMS5003;17137;51.494;-0.262;2024-03-08T15:10:02;67;59;
28647;PMS5003;17137;51.494;-0.262;2024-03-08T15:10:32;68;59;
28647;PMS5003;17137;51.494;-0.262;2024-03-08T15:11:03;58;52;
28647;PMS5003;17137;51.494;-0.262;2024-03-08T15:11:34;58;52;
28647;PMS5003;17137;51.494;-0.262;2024-03-08T15:12:04;58;52;
28647;PMS5003;17137;51.494;-0.262;2024-03-08T15:12:35;65;54;
28647;PMS5003;17137;51.494;-0.262;2024-03-08T15:13:10;63;52;
28647;PMS5003;17137;51.494;-0.262;2024-03-08T15:13:40;57;50;
28647;PMS5003;17137;51.494;-0.262;2024-03-08T15:14:11;62;52;
28647;PMS5003;17137;51.494;-0.262;2024-03-08T15:14:41;62;52;
28647;PMS5003;17137;51.494;-0.262;2024-03-08T15:15:12;57;47;
28647;PMS5003;17137;51.494;-0.262;2024-03-08T15:15:42;59;48;
28647;PMS5003;17137;51.494;-0.262;2024-03-08T15:16:13;59;48;
28647;PMS5003;17137;51.494;-0.262;2024-03-08T15:16:48;59;46;
28647;PMS5003;17137;51.494;-0.262;2024-03-08T15:17:19;65;47;
28647;PMS5003;17137;51.494;-0.262;2024-03-08T15:17:49;58;46;
28647;PMS5003;17137;51.494;-0.262;2024-03-08T15:18:19;61;47;
28647;PMS5003;17137;51.494;-0.262;2024-03-08T15:18:51;64;47;
28647;PMS5003;17137;51.494;-0.262;2024-03-08T15:19:21;64;47;
28647;PMS5003;17137;51.494;-0.262;2024-03-08T15:19:51;64;47;
28647;PMS5003;17137;51.494;-0.262;2024-03-08T15:20:22;58;46;
28647;PMS5003;17137;51.494;-0.262;2024-03-08T15:20:52;57;45;
28647;PMS5003;17137;51.494;-0.262;2024-03-08T15:21:22;57;45;
28647;PMS5003;17137;51.494;-0.262;2024-03-08T15:21:53;56;42;
28647;PMS5003;17137;51.494;-0.262;2024-03-08T15:22:23;56;43;
28647;PMS5003;17137;51.494;-0.262;2024-03-08T15:22:54;56;43;
28647;PMS5003;17137;51.494;-0.262;2024-03-08T15:23:24;55;43;
28647;PMS5003;17137;51.494;-0.262;2024-03-08T15:23:54;55;43;
28647;PMS5003;17137;51.494;-0.262;2024-03-08T15:24:24;54;42;
28647;PMS5003;17137;51.494;-0.262;2024-03-08T15:25:24;51;42;
28647;PMS5003;17137;51.494;-0.262;2024-03-08T15:25:54;51;42;
28647;PMS5003;17137;51.494;-0.262;2024-03-08T15:26:25;51;42;
28647;PMS5003;17137;51.494;-0.262;2024-03-08T15:26:55;51;42;
28647;PMS5003;17137;51.494;-0.262;2024-03-08T15:27:25;51;42;
28647;PMS5003;17137;51.494;-0.262;2024-03-08T15:27:56;52;43;
28647;PMS5003;17137;51.494;-0.262;2024-03-08T15:28:26;52;43;
28647;PMS5003;17137;51.494;-0.262;2024-03-08T15:28:57;52;43;
28647;PMS5003;17137;51.494;-0.262;2024-03-08T15:29:27;49;45;
28647;PMS5003;17137;51.494;-0.262;2024-03-08T15:29:57;49;45;
28647;PMS5003;17137;51.494;-0.262;2024-03-08T15:30:28;49;45;
28647;PMS5003;17137;51.494;-0.262;2024-03-08T15:30:58;53;47;
28647;PMS5003;17137;51.494;-0.262;2024-03-08T15:31:28;53;47;
28647;PMS5003;17137;51.494;-0.262;2024-03-08T15:31:59;53;47;
28647;PMS5003;17137;51.494;-0.262;2024-03-08T15:32:29;47;46;
28647;PMS5003;17137;51.494;-0.262;2024-03-08T15:32:59;48;48;
28647;PMS5003;17137;51.494;-0.262;2024-03-08T15:33:30;51;48;
28647;PMS5003;17137;51.494;-0.262;2024-03-08T15:34:00;54;52;
28647;PMS5003;17137;51.494;-0.262;2024-03-08T15:34:30;56;53;
28647;PMS5003;17137;51.494;-0.262;2024-03-08T15:35:01;60;56;
28647;PMS5003;17137;51.494;-0.262;2024-03-08T15:35:31;60;56;
28647;PMS5003;17137;51.494;-0.262;2024-03-08T15:36:02;64;57;
28647;PMS5003;17137;51.494;-0.262;2024-03-08T15:36:32;64;57;
28647;PMS5003;17137;51.494;-0.262;2024-03-08T15:37:03;64;54;
28647;PMS5003;17137;51.494;-0.262;2024-03-08T15:37:33;70;59;
28647;PMS5003;17137;51.494;-0.262;2024-03-08T15:38:04;68;59;
28647;PMS5003;17137;51.494;-0.262;2024-03-08T15:38:34;68;60;
28647;PMS5003;17137;51.494;-0.262;2024-03-08T15:39:05;68;60;
28647;PMS5003;17137;51.494;-0.262;2024-03-08T15:39:35;69;61;
28647;PMS5003;17137;51.494;-0.262;2024-03-08T15:40:06;68;60;
28647;PMS5003;17137;51.494;-0.262;2024-03-08T15:40:37;68;60;
28647;PMS5003;17137;51.494;-0.262;2024-03-08T15:41:07;68;60;
28647;PMS5003;17137;51.494;-0.262;2024-03-08T15:41:37;66;55;
28647;PMS5003;17137;51.494;-0.262;2024-03-08T15:42:08;65;54;
28647;PMS5003;17137;51.494;-0.262;2024-03-08T15:42:38;66;54;
28647;PMS5003;17137;51.494;-0.262;2024-03-08T15:43:08;62;52;
28647;PMS5003;17137;51.494;-0.262;2024-03-08T15:43:39;61;52;
28647;PMS5003;17137;51.494;-0.262;2024-03-08T15:44:10;58;51;
28647;PMS5003;17137;51.494;-0.262;2024-03-08T15:44:40;53;48;
28647;PMS5003;17137;51.494;-0.262;2024-03-08T15:45:11;56;48;
28647;PMS5003;17137;51.494;-0.262;2024-03-08T15:45:41;54;46;
28647;PMS5003;17137;51.494;-0.262;2024-03-08T15:46:11;54;45;
28647;PMS5003;17137;51.494;-0.262;2024-03-08T15:46:42;51;47;
28647;PMS5003;17137;51.494;-0.262;2024-03-08T15:47:12;51;47;
28647;PMS5003;17137;51.494;-0.262;2024-03-08T15:47:42;51;48;
28647;PMS5003;17137;51.494;-0.262;2024-03-08T15:48:13;54;51;
28647;PMS5003;17137;51.494;-0.262;2024-03-08T15:48:44;54;51;
28647;PMS5003;17137;51.494;-0.262;2024-03-08T15:49:14;57;49;
28647;PMS5003;17137;51.494;-0.262;2024-03-08T15:49:44;56;49;
28647;PMS5003;17137;51.494;-0.262;2024-03-08T15:50:15;56;49;
28647;PMS5003;17137;51.494;-0.262;2024-03-08T15:50:45;56;48;
28647;PMS5003;17137;51.494;-0.262;2024-03-08T15:51:15;56;48;
28647;PMS5003;17137;51.494;-0.262;2024-03-08T15:51:46;56;48;
28647;PMS5003;17137;51.494;-0.262;2024-03-08T15:52:16;55;48;
28647;PMS5003;17137;51.494;-0.262;2024-03-08T15:52:46;55;48;
28647;PMS5003;17137;51.494;-0.262;2024-03-08T15:53:16;55;48;
28647;PMS5003;17137;51.494;-0.262;2024-03-08T15:53:47;53;46;
28647;PMS5003;17137;51.494;-0.262;2024-03-08T15:54:17;53;46;
28647;PMS5003;17137;51.494;-0.262;2024-03-08T15:54:47;53;46;
28647;PMS5003;17137;51.494;-0.262;2024-03-08T15:55:18;49;43;
28647;PMS5003;17137;51.494;-0.262;2024-03-08T15:55:49;49;43;
28647;PMS5003;17137;51.494;-0.262;2024-03-08T15:56:19;49;43;
28647;PMS5003;17137;51.494;-0.262;2024-03-08T15:56:50;49;43;
28647;PMS5003;17137;51.494;-0.262;2024-03-08T15:57:20;49;43;
28647;PMS5003;17137;51.494;-0.262;2024-03-08T15:57:50;49;43;
28647;PMS5003;17137;51.494;-0.262;2024-03-08T15:58:21;45;41;
28647;PMS5003;17137;51.494;-0.262;2024-03-08T15:58:51;45;41;
28647;PMS5003;17137;51.494;-0.262;2024-03-08T16:06:37;29;29;
28647;PMS5003;17137;51.494;-0.262;2024-03-08T16:07:07;27;27;
28647;PMS5003;17137;51.494;-0.262;2024-03-08T16:07:38;31;25;
28647;PMS5003;17137;51.494;-0.262;2024-03-08T16:08:09;32;28;
28647;PMS5003;17137;51.494;-0.262;2024-03-08T16:08:39;34;28;
28647;PMS5003;17137;51.494;-0.262;2024-03-08T16:09:10;33;28;
28647;PMS5003;17137;51.494;-0.262;2024-03-08T16:09:40;31;27;
28647;PMS5003;17137;51.494;-0.262;2024-03-08T16:10:10;31;28;
28647;PMS5003;17137;51.494;-0.262;2024-03-08T16:10:41;32;27;
28647;PMS5003;17137;51.494;-0.262;2024-03-08T16:11:12;45;39;
28647;PMS5003;17137;51.494;-0.262;2024-03-08T16:11:42;43;37;
28647;PMS5003;17137;51.494;-0.262;2024-03-08T16:12:12;40;34;
28647;PMS5003;17137;51.494;-0.262;2024-03-08T16:12:43;39;34;
28647;PMS5003;17137;51.494;-0.262;2024-03-08T16:13:13;36;31;
28647;PMS5003;17137;51.494;-0.262;2024-03-08T16:13:43;33;30;
28647;PMS5003;17137;51.494;-0.262;2024-03-08T16:14:14;30;28;
28647;PMS5003;17137;51.494;-0.262;2024-03-08T16:14:44;30;28;
28647;PMS5003;17137;51.494;-0.262;2024-03-08T16:15:14;30;27;
28647;PMS5003;17137;51.494;-0.262;2024-03-08T16:15:45;28;28;
28647;PMS5003;17137;51.494;-0.262;2024-03-08T16:16:15;28;28;
28647;PMS5003;17137;51.494;-0.262;2024-03-08T16:16:45;28;28;
28647;PMS5003;17137;51.494;-0.262;2024-03-08T16:17:16;28;28;
28647;PMS5003;17137;51.494;-0.262;2024-03-08T16:17:46;28;28;
28647;PMS5003;17137;51.494;-0.262;2024-03-08T16:18:17;30;30;
28647;PMS5003;17137;51.494;-0.262;2024-03-08T16:18:48;30;30;
28647;PMS5003;17137;51.494;-0.262;2024-03-08T16:19:18;30;30;
28647;PMS5003;17137;51.494;-0.262;2024-03-08T16:19:53;36;31;
28647;PMS5003;17137;51.494;-0.262;2024-03-08T16:20:23;36;31;
28647;PMS5003;17137;51.494;-0.262;2024-03-08T16:20:54;36;31;
28647;PMS5003;17137;51.494;-0.262;2024-03-08T16:21:30;39;36;
28647;PMS5003;17137;51.494;-0.262;2024-03-08T16:22:00;39;36;
28647;PMS5003;17137;51.494;-0.262;2024-03-08T16:22:31;39;36;
28647;PMS5003;17137;51.494;-0.262;2024-03-08T16:23:01;43;37;
28647;PMS5003;17137;51.494;-0.262;2024-03-08T16:23:32;43;37;
28647;PMS5003;17137;51.494;-0.262;2024-03-08T16:24:02;43;37;
28647;PMS5003;17137;51.494;-0.262;2024-03-08T16:24:33;45;39;
28647;PMS5003;17137;51.494;-0.262;2024-03-08T16:25:04;45;40;
28647;PMS5003;17137;51.494;-0.262;2024-03-08T16:25:35;49;43;
28647;PMS5003;17137;51.494;-0.262;2024-03-08T16:26:06;51;42;
28647;PMS5003;17137;51.494;-0.262;2024-03-08T16:26:36;51;42;
28647;PMS5003;17137;51.494;-0.262;2024-03-08T16:27:06;57;46;
28647;PMS5003;17137;51.494;-0.262;2024-03-08T16:27:36;58;46;
28647;PMS5003;17137;51.494;-0.262;2024-03-08T16:28:12;52;45;
28647;PMS5003;17137;51.494;-0.262;2024-03-08T16:28:43;52;45;
28647;PMS5003;17137;51.494;-0.262;2024-03-08T16:29:13;49;43;
28647;PMS5003;17137;51.494;-0.262;2024-03-08T16:29:44;55;48;
28647;PMS5003;17137;51.494;-0.262;2024-03-08T16:30:14;57;49;
28647;PMS5003;17137;51.494;-0.262;2024-03-08T16:30:44;57;46;
28647;PMS5003;17137;51.494;-0.262;2024-03-08T16:31:15;57;46;
28647;PMS5003;17137;51.494;-0.262;2024-03-08T16:31:45;57;46;
28647;PMS5003;17137;51.494;-0.262;2024-03-08T16:32:16;55;48;
28647;PMS5003;17137;51.494;-0.262;2024-03-08T16:32:46;55;48;
28647;PMS5003;17137;51.494;-0.262;2024-03-08T16:33:16;55;48;
28647;PMS5003;17137;51.494;-0.262;2024-03-08T16:33:47;57;48;
28647;PMS5003;17137;51.494;-0.262;2024-03-08T16:34:22;57;48;
28647;PMS5003;17137;51.494;-0.262;2024-03-08T16:34:57;57;48;
28647;PMS5003;17137;51.494;-0.262;2024-03-08T16:35:28;54;49;
28647;PMS5003;17137;51.494;-0.262;2024-03-08T16:35:58;54;49;
28647;PMS5003;17137;51.494;-0.262;2024-03-08T16:36:29;54;49;
28647;PMS5003;17137;51.494;-0.262;2024-03-08T16:36:59;55;51;
28647;PMS5003;17137;51.494;-0.262;2024-03-08T16:37:29;55;51;
28647;PMS5003;17137;51.494;-0.262;2024-03-08T16:37:59;55;51;
28647;PMS5003;17137;51.494;-0.262;2024-03-08T16:38:30;55;49;
28647;PMS5003;17137;51.494;-0.262;2024-03-08T16:39:00;55;49;
28647;PMS5003;17137;51.494;-0.262;2024-03-08T16:39:30;55;49;
28647;PMS5003;17137;51.494;-0.262;2024-03-08T16:40:00;57;51;
28647;PMS5003;17137;51.494;-0.262;2024-03-08T16:40:31;58;51;
28647;PMS5003;17137;51.494;-0.262;2024-03-08T16:41:01;60;51;
28647;PMS5003;17137;51.494;-0.262;2024-03-08T16:41:32;60;49;
28647;PMS5003;17137;51.494;-0.262;2024-03-08T16:42:02;60;49;
28647;PMS5003;17137;51.494;-0.262;2024-03-08T16:42:32;61;51;
28647;PMS5003;17137;51.494;-0.262;2024-03-08T16:43:08;70;57;
28647;PMS5003;17137;51.494;-0.262;2024-03-08T16:43:39;70;55;
28647;PMS5003;17137;51.494;-0.262;2024-03-08T16:44:09;70;54;
28647;PMS5003;17137;51.494;-0.262;2024-03-08T16:44:40;76;58;
28647;PMS5003;17137;51.494;-0.262;2024-03-08T16:45:10;75;58;
28647;PMS5003;17137;51.494;-0.262;2024-03-08T16:45:41;78;58;
28647;PMS5003;17137;51.494;-0.262;2024-03-08T16:46:12;76;57;
28647;PMS5003;17137;51.494;-0.262;2024-03-08T16:46:42;76;57;
28647;PMS5003;17137;51.494;-0.262;2024-03-08T16:47:12;76;57;
28647;PMS5003;17137;51.494;-0.262;2024-03-08T16:47:42;76;57;
28647;PMS5003;17137;51.494;-0.262;2024-03-08T16:48:13;76;57;
28647;PMS5003;17137;51.494;-0.262;2024-03-08T16:48:43;76;57;
28647;PMS5003;17137;51.494;-0.262;2024-03-08T16:49:14;76;57;
28647;PMS5003;17137;51.494;-0.262;2024-03-08T16:49:44;76;57;
28647;PMS5003;17137;51.494;-0.262;2024-03-08T16:50:15;76;57;
28647;PMS5003;17137;51.494;-0.262;2024-03-08T16:50:46;78;57;
28647;PMS5003;17137;51.494;-0.262;2024-03-08T16:51:16;78;57;
28647;PMS5003;17137;51.494;-0.262;2024-03-08T16:51:47;78;57;
28647;PMS5003;17137;51.494;-0.262;2024-03-08T16:52:17;72;54;
28647;PMS5003;17137;51.494;-0.262;2024-03-08T16:52:47;72;54;
28647;PMS5003;17137;51.494;-0.262;2024-03-08T16:53:17;72;54;
28647;PMS5003;17137;51.494;-0.262;2024-03-08T16:53:48;69;54;
28647;PMS5003;17137;51.494;-0.262;2024-03-08T16:54:18;73;54;
28647;PMS5003;17137;51.494;-0.262;2024-03-08T16:54:48;70;52;
28647;PMS5003;17137;51.494;-0.262;2024-03-08T16:55:19;70;54;
28647;PMS5003;17137;51.494;-0.262;2024-03-08T16:55:49;65;52;
28647;PMS5003;17137;51.494;-0.262;2024-03-08T16:56:19;67;53;
28647;PMS5003;17137;51.494;-0.262;2024-03-08T16:56:49;70;56;
28647;PMS5003;17137;51.494;-0.262;2024-03-08T16:57:20;70;59;
28647;PMS5003;17137;51.494;-0.262;2024-03-08T16:57:50;69;60;
28647;PMS5003;17137;51.494;-0.262;2024-03-08T16:58:21;66;57;
28647;PMS5003;17137;51.494;-0.262;2024-03-08T16:58:51;75;63;
28647;PMS5003;17137;51.494;-0.262;2024-03-08T16:59:21;75;66;
28647;PMS5003;17137;51.494;-0.262;2024-03-08T16:59:57;73;64;
28647;PMS5003;17137;51.494;-0.262;2024-03-08T17:00:27;78;64;
28647;PMS5003;17137;51.494;-0.262;2024-03-08T17:00:57;78;64;
28647;PMS5003;17137;51.494;-0.262;2024-03-08T17:01:28;78;63;
28647;PMS5003;17137;51.494;-0.262;2024-03-08T17:01:58;73;58;
28647;PMS5003;17137;51.494;-0.262;2024-03-08T17:02:28;67;55;
28647;PMS5003;17137;51.494;-0.262;2024-03-08T17:02:59;69;55;
28647;PMS5003;17137;51.494;-0.262;2024-03-08T17:03:30;67;55;
28647;PMS5003;17137;51.494;-0.262;2024-03-08T17:04:00;64;55;
28647;PMS5003;17137;51.494;-0.262;2024-03-08T17:04:30;61;51;
28647;PMS5003;17137;51.494;-0.262;2024-03-08T17:05:01;57;46;
28647;PMS5003;17137;51.494;-0.262;2024-03-08T17:05:31;58;45;
28647;PMS5003;17137;51.494;-0.262;2024-03-08T17:06:01;58;45;
28647;PMS5003;17137;51.494;-0.262;2024-03-08T17:06:32;61;48;
28647;PMS5003;17137;51.494;-0.262;2024-03-08T17:07:02;63;49;
28647;PMS5003;17137;51.494;-0.262;2024-03-08T17:07:33;69;52;
28647;PMS5003;17137;51.494;-0.262;2024-03-08T17:08:03;69;52;
28647;PMS5003;17137;51.494;-0.262;2024-03-08T17:08:34;69;52;
28647;PMS5003;17137;51.494;-0.262;2024-03-08T17:09:04;67;51;
28647;PMS5003;17137;51.494;-0.262;2024-03-08T17:09:35;67;51;
28647;PMS5003;17137;51.494;-0.262;2024-03-08T17:10:05;67;51;
28647;PMS5003;17137;51.494;-0.262;2024-03-08T17:10:36;67;51;
28647;PMS5003;17137;51.494;-0.262;2024-03-08T17:11:06;67;51;
28647;PMS5003;17137;51.494;-0.262;2024-03-08T17:11:36;67;51;
28647;PMS5003;17137;51.494;-0.262;2024-03-08T17:12:07;69;52;
28647;PMS5003;17137;51.494;-0.262;2024-03-08T17:12:38;69;52;
28647;PMS5003;17137;51.494;-0.262;2024-03-08T17:13:09;69;52;